createdAt,value
2017-08-05T00:00:51.125Z,1007.84
2017-08-05T00:01:51.088Z,1007.83
2017-08-05T00:02:51.070Z,1007.84
2017-08-05T00:03:51.047Z,1007.8
2017-08-05T00:04:51.026Z,1007.82
2017-08-05T00:05:51.005Z,1007.78
2017-08-05T00:06:50.984Z,1007.78
2017-08-05T00:07:50.964Z,1007.77
2017-08-05T00:08:50.941Z,1007.79
2017-08-05T00:09:50.921Z,1007.79
2017-08-05T00:10:50.907Z,1007.8
2017-08-05T00:11:50.883Z,1007.83
2017-08-05T00:12:50.860Z,1007.76
2017-08-05T00:13:50.840Z,1007.74
2017-08-05T00:14:50.820Z,1007.77
2017-08-05T00:15:50.799Z,1007.76
2017-08-05T00:16:50.778Z,1007.75
2017-08-05T00:17:50.756Z,1007.73
2017-08-05T00:18:50.737Z,1007.74
2017-08-05T00:19:50.716Z,1007.76
2017-08-05T00:20:50.694Z,1007.77
2017-08-05T00:21:50.673Z,1007.72
2017-08-05T00:22:50.654Z,1007.75
2017-08-05T00:23:50.629Z,1007.7
2017-08-05T00:24:50.614Z,1007.7
2017-08-05T00:25:50.589Z,1007.68
2017-08-05T00:26:50.567Z,1007.6
2017-08-05T00:27:50.601Z,1007.59
2017-08-05T00:28:50.530Z,1007.55
2017-08-05T00:29:50.512Z,1007.51
2017-08-05T00:30:50.486Z,1007.53
2017-08-05T00:31:50.467Z,1007.51
2017-08-05T00:32:50.452Z,1007.54
2017-08-05T00:33:50.424Z,1007.58
2017-08-05T00:34:50.404Z,1007.61
2017-08-05T00:35:50.384Z,1007.57
2017-08-05T00:36:50.360Z,1007.61
2017-08-05T00:37:50.340Z,1007.53
2017-08-05T00:38:50.321Z,1007.52
2017-08-05T00:39:50.302Z,1007.52
2017-08-05T00:40:50.278Z,1007.54
2017-08-05T00:41:50.257Z,1007.55
2017-08-05T00:42:50.236Z,1007.51
2017-08-05T00:43:50.221Z,1007.5
2017-08-05T00:44:50.195Z,1007.58
2017-08-05T00:45:50.174Z,1007.55
2017-08-05T00:46:50.151Z,1007.55
2017-08-05T00:47:50.132Z,1007.61
2017-08-05T00:48:50.110Z,1007.6
2017-08-05T00:49:50.089Z,1007.59
2017-08-05T00:50:50.076Z,1007.59
2017-08-05T00:51:50.053Z,1007.65
2017-08-05T00:52:50.028Z,1007.6
2017-08-05T00:53:50.008Z,1007.62
2017-08-05T00:54:50.003Z,1007.58
2017-08-05T00:55:49.967Z,1007.61
2017-08-05T00:56:49.943Z,1007.58
2017-08-05T00:57:49.927Z,1007.6
2017-08-05T00:58:49.905Z,1007.58
2017-08-05T00:59:49.881Z,1007.6
2017-08-05T01:00:49.860Z,1007.58
2017-08-05T01:01:49.838Z,1007.58
2017-08-05T01:02:49.819Z,1007.55
2017-08-05T01:03:49.796Z,1007.54
2017-08-05T01:04:49.775Z,1007.52
2017-08-05T01:05:49.761Z,1007.52
2017-08-05T01:06:49.730Z,1007.49
2017-08-05T01:07:49.713Z,1007.49
2017-08-05T01:08:49.692Z,1007.53
2017-08-05T01:09:49.671Z,1007.53
2017-08-05T01:10:49.652Z,1007.53
2017-08-05T01:11:49.630Z,1007.54
2017-08-05T01:12:49.613Z,1007.61
2017-08-05T01:13:49.588Z,1007.67
2017-08-05T01:14:49.570Z,1007.63
2017-08-05T01:15:49.545Z,1007.61
2017-08-05T01:16:49.524Z,1007.56
2017-08-05T01:17:49.503Z,1007.51
2017-08-05T01:18:49.482Z,1007.5
2017-08-05T01:19:49.460Z,1007.52
2017-08-05T01:20:49.443Z,1007.48
2017-08-05T01:21:49.420Z,1007.46
2017-08-05T01:22:49.403Z,1007.52
2017-08-05T01:23:49.378Z,1007.53
2017-08-05T01:24:49.357Z,1007.54
2017-08-05T01:25:49.335Z,1007.57
2017-08-05T01:26:49.321Z,1007.61
2017-08-05T01:27:49.293Z,1007.57
2017-08-05T01:28:49.276Z,1007.61
2017-08-05T01:29:49.254Z,1007.58
2017-08-05T01:30:49.231Z,1007.58
2017-08-05T01:31:49.212Z,1007.57
2017-08-05T01:32:49.186Z,1007.58
2017-08-05T01:33:49.168Z,1007.63
2017-08-05T01:34:49.146Z,1007.6
2017-08-05T01:35:49.125Z,1007.52
2017-08-05T01:36:49.104Z,1007.5
2017-08-05T01:37:49.083Z,1007.5
2017-08-05T01:38:49.063Z,1007.46
2017-08-05T01:39:49.042Z,1007.44
2017-08-05T01:40:49.019Z,1007.48
2017-08-05T01:41:48.998Z,1007.44
2017-08-05T01:42:48.979Z,1007.43
2017-08-05T01:43:48.956Z,1007.39
2017-08-05T01:44:48.934Z,1007.37
2017-08-05T01:45:48.915Z,1007.38
2017-08-05T01:46:48.894Z,1007.37
2017-08-05T01:47:48.873Z,1007.33
2017-08-05T01:48:48.851Z,1007.34
2017-08-05T01:49:48.830Z,1007.37
2017-08-05T01:50:48.809Z,1007.37
2017-08-05T01:51:48.788Z,1007.36
2017-08-05T01:52:48.772Z,1007.37
2017-08-05T01:53:48.747Z,1007.36
2017-08-05T01:54:48.722Z,1007.45
2017-08-05T01:55:48.704Z,1007.48
2017-08-05T01:56:48.685Z,1007.5
2017-08-05T01:57:48.663Z,1007.56
2017-08-05T01:58:48.646Z,1007.61
2017-08-05T01:59:48.622Z,1007.66
2017-08-05T02:00:48.599Z,1007.68
2017-08-05T02:01:48.577Z,1007.69
2017-08-05T02:02:48.558Z,1007.65
2017-08-05T02:03:48.535Z,1007.62
2017-08-05T02:04:48.514Z,1007.55
2017-08-05T02:05:48.493Z,1007.51
2017-08-05T02:06:48.476Z,1007.46
2017-08-05T02:07:48.450Z,1007.48
2017-08-05T02:08:48.431Z,1007.47
2017-08-05T02:09:48.413Z,1007.52
2017-08-05T02:10:48.388Z,1007.57
2017-08-05T02:11:48.373Z,1007.6
2017-08-05T02:12:48.347Z,1007.59
2017-08-05T02:13:48.327Z,1007.6
2017-08-05T02:14:48.304Z,1007.57
2017-08-05T02:15:48.282Z,1007.58
2017-08-05T02:16:48.261Z,1007.6
2017-08-05T02:17:48.240Z,1007.55
2017-08-05T02:18:48.219Z,1007.53
2017-08-05T02:19:48.197Z,1007.51
2017-08-05T02:20:48.177Z,1007.53
2017-08-05T02:21:48.162Z,1007.52
2017-08-05T02:22:48.134Z,1007.55
2017-08-05T02:23:48.163Z,1007.58
2017-08-05T02:24:48.092Z,1007.57
2017-08-05T02:25:48.070Z,1007.59
2017-08-05T02:26:48.052Z,1007.56
2017-08-05T02:27:48.030Z,1007.61
2017-08-05T02:28:48.009Z,1007.55
2017-08-05T02:29:47.994Z,1007.51
2017-08-05T02:30:47.988Z,1007.56
2017-08-05T02:31:47.948Z,1007.59
2017-08-05T02:32:47.927Z,1007.7
2017-08-05T02:33:47.905Z,1007.74
2017-08-05T02:34:47.881Z,1007.77
2017-08-05T02:35:47.860Z,1007.78
2017-08-05T02:36:47.839Z,1007.78
2017-08-05T02:37:47.818Z,1007.73
2017-08-05T02:38:47.795Z,1007.69
2017-08-05T02:39:47.775Z,1007.67
2017-08-05T02:40:47.759Z,1007.63
2017-08-05T02:41:47.735Z,1007.6
2017-08-05T02:42:47.710Z,1007.59
2017-08-05T02:43:47.695Z,1007.57
2017-08-05T02:44:47.671Z,1007.59
2017-08-05T02:45:47.652Z,1007.63
2017-08-05T02:46:47.631Z,1007.65
2017-08-05T02:47:47.608Z,1007.63
2017-08-05T02:48:47.586Z,1007.7
2017-08-05T02:49:47.567Z,1007.72
2017-08-05T02:50:47.542Z,1007.76
2017-08-05T02:51:47.522Z,1007.7
2017-08-05T02:52:47.499Z,1007.65
2017-08-05T02:53:47.480Z,1007.66
2017-08-05T02:54:47.514Z,1007.64
2017-08-05T02:55:47.443Z,1007.73
2017-08-05T02:56:47.419Z,1007.71
2017-08-05T02:57:47.397Z,1007.72
2017-08-05T02:58:47.376Z,1007.71
2017-08-05T02:59:47.355Z,1007.72
2017-08-05T03:00:47.334Z,1007.69
2017-08-05T03:01:47.315Z,1007.68
2017-08-05T03:02:47.292Z,1007.66
2017-08-05T03:03:47.272Z,1007.58
2017-08-05T03:04:47.251Z,1007.52
2017-08-05T03:05:47.231Z,1007.49
2017-08-05T03:06:47.208Z,1007.52
2017-08-05T03:07:47.187Z,1007.53
2017-08-05T03:08:47.166Z,1007.52
2017-08-05T03:09:47.146Z,1007.54
2017-08-05T03:10:47.129Z,1007.54
2017-08-05T03:11:47.102Z,1007.53
2017-08-05T03:12:47.083Z,1007.55
2017-08-05T03:13:47.061Z,1007.55
2017-08-05T03:14:47.040Z,1007.56
2017-08-05T03:15:47.019Z,1007.58
2017-08-05T03:16:47.000Z,1007.55
2017-08-05T03:17:46.981Z,1007.56
2017-08-05T03:18:46.955Z,1007.57
2017-08-05T03:19:46.937Z,1007.53
2017-08-05T03:20:46.920Z,1007.55
2017-08-05T03:21:46.894Z,1007.52
2017-08-05T03:22:46.877Z,1007.58
2017-08-05T03:23:46.852Z,1007.55
2017-08-05T03:24:46.834Z,1007.5
2017-08-05T03:25:46.811Z,1007.52
2017-08-05T03:26:46.790Z,1007.51
2017-08-05T03:27:46.771Z,1007.54
2017-08-05T03:28:46.750Z,1007.53
2017-08-05T03:29:46.728Z,1007.5
2017-08-05T03:30:46.709Z,1007.51
2017-08-05T03:31:46.686Z,1007.49
2017-08-05T03:32:46.683Z,1007.46
2017-08-05T03:33:46.643Z,1007.43
2017-08-05T03:34:46.624Z,1007.4
2017-08-05T03:35:46.603Z,1007.45
2017-08-05T03:36:46.630Z,1007.39
2017-08-05T03:37:46.561Z,1007.41
2017-08-05T03:38:46.547Z,1007.45
2017-08-05T03:39:46.523Z,1007.55
2017-08-05T03:40:46.505Z,1007.54
2017-08-05T03:41:46.478Z,1007.57
2017-08-05T03:42:46.459Z,1007.55
2017-08-05T03:43:46.442Z,1007.58
2017-08-05T03:44:46.422Z,1007.59
2017-08-05T03:45:46.394Z,1007.6
2017-08-05T03:46:46.377Z,1007.6
2017-08-05T03:47:46.352Z,1007.58
2017-08-05T03:48:46.335Z,1007.51
2017-08-05T03:49:46.312Z,1007.53
2017-08-05T03:50:46.292Z,1007.5
2017-08-05T03:51:46.269Z,1007.47
2017-08-05T03:52:46.250Z,1007.39
2017-08-05T03:53:46.233Z,1007.3
2017-08-05T03:54:46.206Z,1007.32
2017-08-05T03:55:46.186Z,1007.28
2017-08-05T03:56:46.169Z,1007.32
2017-08-05T03:57:46.146Z,1007.3
2017-08-05T03:58:46.123Z,1007.25
2017-08-05T03:59:46.102Z,1007.27
2017-08-05T04:00:46.086Z,1007.29
2017-08-05T04:01:46.067Z,1007.3
2017-08-05T04:02:46.063Z,1007.31
2017-08-05T04:03:46.024Z,1007.29
2017-08-05T04:04:46.000Z,1007.31
2017-08-05T04:05:45.977Z,1007.34
2017-08-05T04:06:45.957Z,1007.37
2017-08-05T04:07:45.937Z,1007.37
2017-08-05T04:08:45.916Z,1007.37
2017-08-05T04:09:45.896Z,1007.33
2017-08-05T04:10:45.873Z,1007.36
2017-08-05T04:11:45.855Z,1007.39
2017-08-05T04:12:45.834Z,1007.35
2017-08-05T04:13:45.819Z,1007.32
2017-08-05T04:14:45.791Z,1007.29
2017-08-05T04:15:45.784Z,1007.31
2017-08-05T04:16:45.751Z,1007.33
2017-08-05T04:17:45.732Z,1007.3
2017-08-05T04:18:45.708Z,1007.36
2017-08-05T04:19:45.693Z,1007.34
2017-08-05T04:20:45.668Z,1007.33
2017-08-05T04:21:45.649Z,1007.36
2017-08-05T04:22:45.629Z,1007.46
2017-08-05T04:23:45.661Z,1007.51
2017-08-05T04:24:45.589Z,1007.58
2017-08-05T04:25:45.564Z,1007.59
2017-08-05T04:26:45.543Z,1007.56
2017-08-05T04:27:45.524Z,1007.53
2017-08-05T04:28:45.502Z,1007.49
2017-08-05T04:29:45.483Z,1007.47
2017-08-05T04:30:45.462Z,1007.47
2017-08-05T04:31:45.440Z,1007.52
2017-08-05T04:32:45.419Z,1007.51
2017-08-05T04:33:45.403Z,1007.52
2017-08-05T04:34:45.381Z,1007.55
2017-08-05T04:35:45.358Z,1007.47
2017-08-05T04:36:45.337Z,1007.48
2017-08-05T04:37:45.318Z,1007.48
2017-08-05T04:38:45.298Z,1007.48
2017-08-05T04:39:45.279Z,1007.49
2017-08-05T04:40:45.253Z,1007.56
2017-08-05T04:41:45.235Z,1007.52
2017-08-05T04:42:45.213Z,1007.54
2017-08-05T04:43:45.193Z,1007.53
2017-08-05T04:44:45.173Z,1007.54
2017-08-05T04:45:45.150Z,1007.54
2017-08-05T04:46:45.135Z,1007.6
2017-08-05T04:47:45.113Z,1007.61
2017-08-05T04:48:45.091Z,1007.62
2017-08-05T04:49:45.069Z,1007.63
2017-08-05T04:50:45.056Z,1007.61
2017-08-05T04:51:45.031Z,1007.53
2017-08-05T04:52:45.007Z,1007.51
2017-08-05T04:53:44.990Z,1007.52
2017-08-05T04:54:44.966Z,1007.49
2017-08-05T04:55:44.946Z,1007.47
2017-08-05T04:56:44.925Z,1007.49
2017-08-05T04:57:44.904Z,1007.47
2017-08-05T04:58:44.884Z,1007.44
2017-08-05T04:59:44.863Z,1007.37
2017-08-05T05:00:44.842Z,1007.35
2017-08-05T05:01:44.824Z,1007.25
2017-08-05T05:02:44.803Z,1007.27
2017-08-05T05:03:44.780Z,1007.27
2017-08-05T05:04:44.759Z,1007.28
2017-08-05T05:05:44.742Z,1007.32
2017-08-05T05:06:44.736Z,1007.34
2017-08-05T05:07:44.699Z,1007.34
2017-08-05T05:08:44.678Z,1007.37
2017-08-05T05:09:44.657Z,1007.37
2017-08-05T05:10:44.636Z,1007.33
2017-08-05T05:11:44.616Z,1007.28
2017-08-05T05:12:44.596Z,1007.22
2017-08-05T05:13:44.574Z,1007.24
2017-08-05T05:14:44.556Z,1007.26
2017-08-05T05:15:44.541Z,1007.23
2017-08-05T05:16:44.514Z,1007.28
2017-08-05T05:17:44.495Z,1007.23
2017-08-05T05:18:44.473Z,1007.21
2017-08-05T05:19:44.453Z,1007.2
2017-08-05T05:20:44.433Z,1007.28
2017-08-05T05:21:44.412Z,1007.29
2017-08-05T05:22:44.390Z,1007.24
2017-08-05T05:23:44.371Z,1007.25
2017-08-05T05:24:44.350Z,1007.29
2017-08-05T05:25:44.329Z,1007.25
2017-08-05T05:26:44.312Z,1007.34
2017-08-05T05:27:44.288Z,1007.32
2017-08-05T05:28:44.267Z,1007.32
2017-08-05T05:29:44.246Z,1007.29
2017-08-05T05:30:44.225Z,1007.33
2017-08-05T05:31:44.205Z,1007.24
2017-08-05T05:32:44.184Z,1007.29
2017-08-05T05:33:44.163Z,1007.3
2017-08-05T05:34:44.144Z,1007.35
2017-08-05T05:35:44.124Z,1007.39
2017-08-05T05:36:44.152Z,1007.31
2017-08-05T05:37:44.080Z,1007.35
2017-08-05T05:38:44.063Z,1007.37
2017-08-05T05:39:44.043Z,1007.4
2017-08-05T05:40:44.019Z,1007.37
2017-08-05T05:41:43.998Z,1007.39
2017-08-05T05:42:43.978Z,1007.42
2017-08-05T05:43:43.957Z,1007.46
2017-08-05T05:44:43.935Z,1007.47
2017-08-05T05:45:43.917Z,1007.45
2017-08-05T05:46:43.897Z,1007.42
2017-08-05T05:47:43.874Z,1007.5
2017-08-05T05:48:43.855Z,1007.5
2017-08-05T05:49:43.834Z,1007.47
2017-08-05T05:50:43.810Z,1007.46
2017-08-05T05:51:43.795Z,1007.44
2017-08-05T05:52:43.769Z,1007.4
2017-08-05T05:53:43.750Z,1007.42
2017-08-05T05:54:43.727Z,1007.49
2017-08-05T05:55:43.707Z,1007.5
2017-08-05T05:56:43.686Z,1007.55
2017-08-05T05:57:43.665Z,1007.6
2017-08-05T05:58:43.646Z,1007.58
2017-08-05T05:59:43.623Z,1007.54
2017-08-05T06:00:43.604Z,1007.51
2017-08-05T06:01:43.581Z,1007.5
2017-08-05T06:02:43.562Z,1007.49
2017-08-05T06:03:43.539Z,1007.48
2017-08-05T06:04:43.519Z,1007.48
2017-08-05T06:05:43.498Z,1007.48
2017-08-05T06:06:43.480Z,1007.47
2017-08-05T06:07:43.456Z,1007.51
2017-08-05T06:08:43.439Z,1007.53
2017-08-05T06:09:43.417Z,1007.52
2017-08-05T06:10:43.399Z,1007.54
2017-08-05T06:11:43.376Z,1007.54
2017-08-05T06:12:43.351Z,1007.56
2017-08-05T06:13:43.331Z,1007.49
2017-08-05T06:14:43.309Z,1007.46
2017-08-05T06:15:43.290Z,1007.46
2017-08-05T06:16:43.269Z,1007.5
2017-08-05T06:17:43.248Z,1007.5
2017-08-05T06:18:43.226Z,1007.41
2017-08-05T06:19:43.205Z,1007.32
2017-08-05T06:20:43.186Z,1007.28
2017-08-05T06:21:43.167Z,1007.2
2017-08-05T06:22:43.146Z,1007.17
2017-08-05T06:23:43.122Z,1007.21
2017-08-05T06:24:43.101Z,1007.2
2017-08-05T06:25:43.082Z,1007.15
2017-08-05T06:26:43.059Z,1007.2
2017-08-05T06:27:43.039Z,1007.12
2017-08-05T06:28:43.018Z,1007.04
2017-08-05T06:29:43.001Z,1007.02
2017-08-05T06:30:42.976Z,1006.99
2017-08-05T06:31:42.957Z,1006.96
2017-08-05T06:32:42.933Z,1006.91
2017-08-05T06:33:42.916Z,1006.88
2017-08-05T06:34:42.899Z,1006.81
2017-08-05T06:35:42.874Z,1006.82
2017-08-05T06:36:42.855Z,1006.81
2017-08-05T06:37:42.835Z,1006.9
2017-08-05T06:38:42.838Z,1006.99
2017-08-05T06:39:42.793Z,1006.97
2017-08-05T06:40:42.825Z,1006.98
2017-08-05T06:41:42.757Z,1007.11
2017-08-05T06:42:42.733Z,1007.16
2017-08-05T06:43:42.712Z,1007.21
2017-08-05T06:44:42.693Z,1007.36
2017-08-05T06:45:42.671Z,1007.48
2017-08-05T06:46:42.652Z,1007.52
2017-08-05T06:47:42.628Z,1007.67
2017-08-05T06:48:42.612Z,1007.73
2017-08-05T06:49:42.587Z,1007.83
2017-08-05T06:50:42.569Z,1007.81
2017-08-05T06:51:42.548Z,1007.82
2017-08-05T06:52:42.527Z,1007.8
2017-08-05T06:53:42.506Z,1007.76
2017-08-05T06:54:42.538Z,1007.78
2017-08-05T06:55:42.465Z,1007.77
2017-08-05T06:56:42.444Z,1007.76
2017-08-05T06:57:42.423Z,1007.67
2017-08-05T06:58:42.404Z,1007.62
2017-08-05T06:59:42.386Z,1007.57
2017-08-05T07:00:42.374Z,1007.58
2017-08-05T07:01:42.392Z,1007.52
2017-08-05T07:02:42.321Z,1007.49
2017-08-05T07:03:42.301Z,1007.44
2017-08-05T07:04:42.282Z,1007.39
2017-08-05T07:05:42.263Z,1007.36
2017-08-05T07:06:42.239Z,1007.39
2017-08-05T07:07:42.223Z,1007.44
2017-08-05T07:08:42.200Z,1007.43
2017-08-05T07:09:42.188Z,1007.45
2017-08-05T07:10:42.163Z,1007.44
2017-08-05T07:11:42.138Z,1007.44
2017-08-05T07:12:42.118Z,1007.51
2017-08-05T07:13:42.094Z,1007.46
2017-08-05T07:14:42.076Z,1007.42
2017-08-05T07:15:42.059Z,1007.48
2017-08-05T07:16:42.036Z,1007.48
2017-08-05T07:17:42.015Z,1007.51
2017-08-05T07:18:41.998Z,1007.48
2017-08-05T07:19:41.973Z,1007.54
2017-08-05T07:20:41.959Z,1007.57
2017-08-05T07:21:41.932Z,1007.59
2017-08-05T07:22:41.912Z,1007.58
2017-08-05T07:23:41.891Z,1007.58
2017-08-05T07:24:41.870Z,1007.56
2017-08-05T07:25:41.851Z,1007.43
2017-08-05T07:26:41.832Z,1007.51
2017-08-05T07:27:41.810Z,1007.48
2017-08-05T07:28:41.792Z,1007.48
2017-08-05T07:29:41.770Z,1007.47
2017-08-05T07:30:41.747Z,1007.42
2017-08-05T07:31:41.734Z,1007.4
2017-08-05T07:32:41.705Z,1007.36
2017-08-05T07:33:41.685Z,1007.32
2017-08-05T07:34:41.714Z,1007.31
2017-08-05T07:35:41.645Z,1007.35
2017-08-05T07:36:41.625Z,1007.37
2017-08-05T07:37:41.605Z,1007.35
2017-08-05T07:38:41.584Z,1007.38
2017-08-05T07:39:41.564Z,1007.48
2017-08-05T07:40:41.542Z,1007.48
2017-08-05T07:41:41.520Z,1007.57
2017-08-05T07:42:41.500Z,1007.58
2017-08-05T07:43:41.481Z,1007.6
2017-08-05T07:44:41.460Z,1007.63
2017-08-05T07:45:41.439Z,1007.62
2017-08-05T07:46:41.418Z,1007.68
2017-08-05T07:47:41.398Z,1007.67
2017-08-05T07:48:41.379Z,1007.67
2017-08-05T07:49:41.350Z,1007.71
2017-08-05T07:50:41.345Z,1007.74
2017-08-05T07:51:41.316Z,1007.66
2017-08-05T07:52:41.294Z,1007.6
2017-08-05T07:53:41.275Z,1007.59
2017-08-05T07:54:41.254Z,1007.6
2017-08-05T07:55:41.234Z,1007.59
2017-08-05T07:56:41.213Z,1007.56
2017-08-05T07:57:41.192Z,1007.55
2017-08-05T07:58:41.173Z,1007.5
2017-08-05T07:59:41.152Z,1007.45
2017-08-05T08:00:41.186Z,1007.48
2017-08-05T08:01:41.110Z,1007.42
2017-08-05T08:02:41.090Z,1007.46
2017-08-05T08:03:41.070Z,1007.48
2017-08-05T08:04:41.050Z,1007.48
2017-08-05T08:05:41.030Z,1007.47
2017-08-05T08:06:41.010Z,1007.43
2017-08-05T08:07:40.992Z,1007.44
2017-08-05T08:08:40.971Z,1007.43
2017-08-05T08:09:40.949Z,1007.41
2017-08-05T08:10:40.929Z,1007.43
2017-08-05T08:11:40.909Z,1007.43
2017-08-05T08:12:40.887Z,1007.47
2017-08-05T08:13:40.870Z,1007.48
2017-08-05T08:14:40.848Z,1007.48
2017-08-05T08:15:40.826Z,1007.5
2017-08-05T08:16:40.807Z,1007.5
2017-08-05T08:17:40.788Z,1007.48
2017-08-05T08:18:40.763Z,1007.44
2017-08-05T08:19:40.746Z,1007.45
2017-08-05T08:20:40.726Z,1007.4
2017-08-05T08:21:40.707Z,1007.37
2017-08-05T08:22:40.686Z,1007.37
2017-08-05T08:23:40.665Z,1007.35
2017-08-05T08:24:40.646Z,1007.29
2017-08-05T08:25:40.624Z,1007.25
2017-08-05T08:26:40.603Z,1007.21
2017-08-05T08:27:40.582Z,1007.22
2017-08-05T08:28:40.568Z,1007.2
2017-08-05T08:29:40.544Z,1007.19
2017-08-05T08:30:40.530Z,1007.2
2017-08-05T08:31:40.503Z,1007.28
2017-08-05T08:32:40.487Z,1007.2
2017-08-05T08:33:40.465Z,1007.17
2017-08-05T08:34:40.443Z,1007.19
2017-08-05T08:35:40.420Z,1007.19
2017-08-05T08:36:40.400Z,1007.23
2017-08-05T08:37:40.388Z,1007.22
2017-08-05T08:38:40.363Z,1007.25
2017-08-05T08:39:40.343Z,1007.31
2017-08-05T08:40:40.320Z,1007.32
2017-08-05T08:41:40.305Z,1007.34
2017-08-05T08:42:40.332Z,1007.32
2017-08-05T08:43:40.260Z,1007.35
2017-08-05T08:44:40.239Z,1007.31
2017-08-05T08:45:40.222Z,1007.22
2017-08-05T08:46:40.201Z,1007.23
2017-08-05T08:47:40.183Z,1007.23
2017-08-05T08:48:40.159Z,1007.18
2017-08-05T08:49:40.138Z,1007.26
2017-08-05T08:50:40.120Z,1007.3
2017-08-05T08:51:40.102Z,1007.33
2017-08-05T08:52:40.076Z,1007.36
2017-08-05T08:53:40.061Z,1007.36
2017-08-05T08:54:40.040Z,1007.38
2017-08-05T08:55:40.018Z,1007.42
2017-08-05T08:56:40.001Z,1007.34
2017-08-05T08:57:39.981Z,1007.34
2017-08-05T08:58:39.958Z,1007.34
2017-08-05T08:59:39.939Z,1007.32
2017-08-05T09:00:39.919Z,1007.28
2017-08-05T09:01:39.898Z,1007.24
2017-08-05T09:02:39.877Z,1007.16
2017-08-05T09:03:39.858Z,1007.12
2017-08-05T09:04:39.839Z,1007.08
2017-08-05T09:05:39.814Z,1007.02
2017-08-05T09:06:39.845Z,1006.98
2017-08-05T09:07:39.777Z,1007.02
2017-08-05T09:08:39.759Z,1007.06
2017-08-05T09:09:39.744Z,1007.19
2017-08-05T09:10:39.718Z,1007.29
2017-08-05T09:11:39.698Z,1007.37
2017-08-05T09:12:39.682Z,1007.39
2017-08-05T09:13:39.657Z,1007.43
2017-08-05T09:14:39.639Z,1007.41
2017-08-05T09:15:39.621Z,1007.37
2017-08-05T09:16:39.604Z,1007.31
2017-08-05T09:17:39.578Z,1007.26
2017-08-05T09:18:39.559Z,1007.26
2017-08-05T09:19:39.543Z,1007.25
2017-08-05T09:20:39.520Z,1007.25
2017-08-05T09:21:39.501Z,1007.31
2017-08-05T09:22:39.481Z,1007.34
2017-08-05T09:23:39.462Z,1007.3
2017-08-05T09:24:39.442Z,1007.28
2017-08-05T09:25:39.424Z,1007.31
2017-08-05T09:26:39.405Z,1007.33
2017-08-05T09:27:39.383Z,1007.35
2017-08-05T09:28:39.364Z,1007.38
2017-08-05T09:29:39.349Z,1007.47
2017-08-05T09:30:39.324Z,1007.51
2017-08-05T09:31:39.312Z,1007.49
2017-08-05T09:32:39.288Z,1007.52
2017-08-05T09:33:39.265Z,1007.54
2017-08-05T09:34:39.249Z,1007.48
2017-08-05T09:35:39.224Z,1007.45
2017-08-05T09:36:39.206Z,1007.43
2017-08-05T09:37:39.189Z,1007.41
2017-08-05T09:38:39.165Z,1007.33
2017-08-05T09:39:39.151Z,1007.31
2017-08-05T09:40:39.131Z,1007.23
2017-08-05T09:41:39.160Z,1007.23
2017-08-05T09:42:39.088Z,1007.29
2017-08-05T09:43:39.067Z,1007.25
2017-08-05T09:44:39.048Z,1007.28
2017-08-05T09:45:39.029Z,1007.32
2017-08-05T09:46:39.011Z,1007.39
2017-08-05T09:47:38.991Z,1007.41
2017-08-05T09:48:38.971Z,1007.46
2017-08-05T09:49:38.950Z,1007.52
2017-08-05T09:50:38.929Z,1007.63
2017-08-05T09:51:38.913Z,1007.63
2017-08-05T09:52:38.891Z,1007.66
2017-08-05T09:53:38.871Z,1007.66
2017-08-05T09:54:38.849Z,1007.64
2017-08-05T09:55:38.831Z,1007.64
2017-08-05T09:56:38.810Z,1007.65
2017-08-05T09:57:38.792Z,1007.63
2017-08-05T09:58:38.772Z,1007.62
2017-08-05T09:59:38.752Z,1007.65
2017-08-05T10:00:38.728Z,1007.64
2017-08-05T10:01:38.721Z,1007.66
2017-08-05T10:02:38.692Z,1007.65
2017-08-05T10:03:38.671Z,1007.71
2017-08-05T10:04:38.650Z,1007.71
2017-08-05T10:05:38.631Z,1007.71
2017-08-05T10:06:38.611Z,1007.68
2017-08-05T10:07:38.590Z,1007.71
2017-08-05T10:08:38.570Z,1007.74
2017-08-05T10:09:38.552Z,1007.73
2017-08-05T10:10:38.533Z,1007.69
2017-08-05T10:11:38.514Z,1007.64
2017-08-05T10:12:38.498Z,1007.66
2017-08-05T10:13:38.477Z,1007.67
2017-08-05T10:14:38.458Z,1007.74
2017-08-05T10:15:38.437Z,1007.74
2017-08-05T10:16:38.421Z,1007.75
2017-08-05T10:17:38.402Z,1007.71
2017-08-05T10:18:38.383Z,1007.7
2017-08-05T10:19:38.360Z,1007.67
2017-08-05T10:20:38.340Z,1007.61
2017-08-05T10:21:38.327Z,1007.57
2017-08-05T10:22:38.308Z,1007.63
2017-08-05T10:23:38.293Z,1007.6
2017-08-05T10:24:38.274Z,1007.67
2017-08-05T10:25:38.250Z,1007.66
2017-08-05T10:26:38.231Z,1007.74
2017-08-05T10:27:38.218Z,1007.77
2017-08-05T10:28:38.197Z,1007.76
2017-08-05T10:29:38.182Z,1007.77
2017-08-05T10:30:38.162Z,1007.73
2017-08-05T10:31:38.146Z,1007.72
2017-08-05T10:32:38.125Z,1007.73
2017-08-05T10:33:38.110Z,1007.73
2017-08-05T10:34:38.093Z,1007.72
2017-08-05T10:35:38.073Z,1007.69
2017-08-05T10:36:38.054Z,1007.68
2017-08-05T10:37:38.040Z,1007.65
2017-08-05T10:38:38.018Z,1007.63
2017-08-05T10:39:38.007Z,1007.63
2017-08-05T10:40:37.981Z,1007.59
2017-08-05T10:41:37.969Z,1007.48
2017-08-05T10:42:37.950Z,1007.5
2017-08-05T10:43:37.934Z,1007.49
2017-08-05T10:44:37.913Z,1007.48
2017-08-05T10:45:37.894Z,1007.49
2017-08-05T10:46:37.878Z,1007.44
2017-08-05T10:47:37.881Z,1007.4
2017-08-05T10:48:37.842Z,1007.34
2017-08-05T10:49:37.821Z,1007.3
2017-08-05T10:50:37.803Z,1007.29
2017-08-05T10:51:37.781Z,1007.4
2017-08-05T10:52:37.765Z,1007.42
2017-08-05T10:53:37.748Z,1007.52
2017-08-05T10:54:37.729Z,1007.55
2017-08-05T10:55:37.712Z,1007.58
2017-08-05T10:56:37.692Z,1007.57
2017-08-05T10:57:37.675Z,1007.64
2017-08-05T10:58:37.658Z,1007.62
2017-08-05T10:59:37.642Z,1007.59
2017-08-05T11:00:37.620Z,1007.58
2017-08-05T11:01:37.603Z,1007.54
2017-08-05T11:02:37.585Z,1007.51
2017-08-05T11:03:37.580Z,1007.55
2017-08-05T11:04:37.547Z,1007.57
2017-08-05T11:05:37.530Z,1007.64
2017-08-05T11:06:37.508Z,1007.6
2017-08-05T11:07:37.492Z,1007.65
2017-08-05T11:08:37.473Z,1007.7
2017-08-05T11:09:37.457Z,1007.67
2017-08-05T11:10:37.437Z,1007.72
2017-08-05T11:11:37.417Z,1007.74
2017-08-05T11:12:37.399Z,1007.76
2017-08-05T11:13:37.380Z,1007.79
2017-08-05T11:14:37.365Z,1007.78
2017-08-05T11:15:37.347Z,1007.83
2017-08-05T11:16:37.328Z,1007.82
2017-08-05T11:17:37.309Z,1007.87
2017-08-05T11:18:37.292Z,1007.83
2017-08-05T11:19:37.275Z,1007.8
2017-08-05T11:20:37.250Z,1007.83
2017-08-05T11:21:37.240Z,1007.87
2017-08-05T11:22:37.218Z,1007.8
2017-08-05T11:23:37.203Z,1007.81
2017-08-05T11:24:37.183Z,1007.82
2017-08-05T11:25:37.165Z,1007.8
2017-08-05T11:26:37.150Z,1007.84
2017-08-05T11:27:37.152Z,1007.83
2017-08-05T11:28:37.112Z,1007.83
2017-08-05T11:29:37.095Z,1007.79
2017-08-05T11:30:37.075Z,1007.77
2017-08-05T11:31:37.058Z,1007.76
2017-08-05T11:32:37.044Z,1007.75
2017-08-05T11:33:37.021Z,1007.76
2017-08-05T11:34:37.006Z,1007.72
2017-08-05T11:35:36.987Z,1007.65
2017-08-05T11:36:36.968Z,1007.55
2017-08-05T11:37:36.956Z,1007.48
2017-08-05T11:38:36.934Z,1007.4
2017-08-05T11:39:36.914Z,1007.43
2017-08-05T11:40:36.897Z,1007.58
2017-08-05T11:41:36.881Z,1007.67
2017-08-05T11:42:36.866Z,1007.76
2017-08-05T11:43:36.841Z,1007.74
2017-08-05T11:44:36.824Z,1007.67
2017-08-05T11:45:36.806Z,1007.68
2017-08-05T11:46:36.794Z,1007.75
2017-08-05T11:47:36.775Z,1007.73
2017-08-05T11:48:36.753Z,1007.75
2017-08-05T11:49:36.736Z,1007.8
2017-08-05T11:50:36.721Z,1007.82
2017-08-05T11:51:36.698Z,1007.82
2017-08-05T11:52:36.681Z,1007.78
2017-08-05T11:53:36.659Z,1007.78
2017-08-05T11:54:36.644Z,1007.77
2017-08-05T11:55:36.674Z,1007.81
2017-08-05T11:56:36.605Z,1007.83
2017-08-05T11:57:36.586Z,1007.81
2017-08-05T11:58:36.569Z,1007.79
2017-08-05T11:59:36.550Z,1007.76
2017-08-05T12:00:36.532Z,1007.7
2017-08-05T12:01:36.515Z,1007.69
2017-08-05T12:02:36.496Z,1007.74
2017-08-05T12:03:36.477Z,1007.72
2017-08-05T12:04:36.460Z,1007.7
2017-08-05T12:05:36.441Z,1007.7
2017-08-05T12:06:36.427Z,1007.71
2017-08-05T12:07:36.404Z,1007.69
2017-08-05T12:08:36.385Z,1007.76